createdAt,value
2023-01-26T00:00:44.047Z,32.72
2023-01-26T00:01:46.305Z,30.27
2023-01-26T00:02:48.540Z,31.70
2023-01-26T00:03:51.457Z,30.33
2023-01-26T00:04:53.806Z,27.63
2023-01-26T00:05:56.026Z,29.13
2023-01-26T00:06:58.307Z,29.65
2023-01-26T00:08:00.565Z,28.00
2023-01-26T00:09:02.910Z,30.73
2023-01-26T00:10:05.459Z,30.02
2023-01-26T00:11:10.389Z,32.45
2023-01-26T00:12:12.686Z,32.38
2023-01-26T00:13:15.189Z,22.55
2023-01-26T00:14:17.399Z,31.83
2023-01-26T00:15:19.683Z,32.28
2023-01-26T00:16:22.600Z,28.80
2023-01-26T00:17:27.624Z,33.55
2023-01-26T00:18:31.088Z,27.13
2023-01-26T00:19:33.338Z,32.20
2023-01-26T00:20:35.738Z,28.25
2023-01-26T00:21:38.075Z,25.35
2023-01-26T00:22:40.419Z,29.73
2023-01-26T00:23:43.028Z,27.35
2023-01-26T00:24:45.339Z,32.85
2023-01-26T00:25:47.628Z,32.90
2023-01-26T00:26:49.827Z,29.88
2023-01-26T00:27:52.039Z,33.10
2023-01-26T00:28:55.008Z,34.00
2023-01-26T00:29:57.346Z,31.73
2023-01-26T00:31:04.630Z,35.42
2023-01-26T00:32:06.943Z,29.65
2023-01-26T00:33:09.177Z,25.60
2023-01-26T00:34:11.490Z,34.38
2023-01-26T00:35:17.233Z,29.27
2023-01-26T00:36:19.596Z,32.63
2023-01-26T00:37:21.997Z,30.80
2023-01-26T00:38:26.271Z,28.45
2023-01-26T00:39:28.572Z,31.23
2023-01-26T00:40:31.283Z,26.85
2023-01-26T00:41:52.149Z,27.13
2023-01-26T00:42:54.713Z,28.67
2023-01-26T00:43:57.040Z,30.73
2023-01-26T00:44:59.322Z,33.95
2023-01-26T00:46:01.585Z,31.67
2023-01-26T00:47:04.149Z,25.38
2023-01-26T00:48:07.077Z,28.88
2023-01-26T00:49:09.382Z,28.02
2023-01-26T00:50:12.193Z,31.65
2023-01-26T00:51:14.637Z,29.42
2023-01-26T00:52:16.988Z,29.80
2023-01-26T00:53:19.618Z,31.98
2023-01-26T00:54:21.876Z,29.45
2023-01-26T00:55:24.408Z,31.73
2023-01-26T00:56:28.071Z,29.50
2023-01-26T00:57:30.439Z,27.67
2023-01-26T00:58:32.687Z,28.75
2023-01-26T00:59:34.942Z,30.35
2023-01-26T01:00:38.763Z,27.75
2023-01-26T01:01:41.160Z,30.75
2023-01-26T01:02:44.246Z,34.15
2023-01-26T01:03:46.688Z,29.70
2023-01-26T01:04:49.025Z,31.60
2023-01-26T01:05:52.235Z,39.00
2023-01-26T01:06:54.463Z,29.83
2023-01-26T01:07:57.323Z,35.67
2023-01-26T01:08:59.616Z,39.65
2023-01-26T01:10:01.905Z,34.97
2023-01-26T01:11:09.853Z,32.90
2023-01-26T01:12:12.334Z,39.42
2023-01-26T01:13:14.575Z,41.55
2023-01-26T01:14:16.849Z,29.23
2023-01-26T01:15:19.552Z,31.95
2023-01-26T01:16:22.163Z,32.90
2023-01-26T01:17:25.527Z,34.40
2023-01-26T01:18:27.775Z,36.30
2023-01-26T01:19:30.076Z,32.10
2023-01-26T01:20:32.381Z,37.95
2023-01-26T01:21:36.326Z,33.25
2023-01-26T01:22:38.756Z,35.88
2023-01-26T01:23:41.539Z,36.33
2023-01-26T01:24:43.788Z,31.27
2023-01-26T01:25:46.560Z,34.72
2023-01-26T01:26:48.795Z,36.75
2023-01-26T01:27:51.207Z,35.03
2023-01-26T01:28:55.820Z,34.38
2023-01-26T01:29:58.309Z,36.47
2023-01-26T01:31:03.719Z,31.30
2023-01-26T01:32:06.164Z,42.22
2023-01-26T01:33:08.546Z,39.03
2023-01-26T01:34:10.879Z,35.78
2023-01-26T01:35:13.126Z,39.95
2023-01-26T01:36:16.799Z,37.10
2023-01-26T01:37:19.083Z,34.55
2023-01-26T01:38:21.304Z,30.88
2023-01-26T01:39:23.701Z,31.83
2023-01-26T01:40:26.451Z,34.78
2023-01-26T01:41:28.727Z,27.55
2023-01-26T01:42:33.103Z,33.63
2023-01-26T01:43:36.568Z,31.40
2023-01-26T01:44:39.119Z,32.92
2023-01-26T01:45:49.995Z,36.10
2023-01-26T01:47:04.479Z,34.90
2023-01-26T01:48:13.264Z,32.20
2023-01-26T01:49:26.987Z,27.02
2023-01-26T01:50:36.910Z,28.75
2023-01-26T01:51:45.989Z,33.90
2023-01-26T01:52:49.090Z,30.05
2023-01-26T01:53:52.813Z,32.10
2023-01-26T01:55:02.478Z,26.52
2023-01-26T01:56:11.283Z,29.80
2023-01-26T01:57:27.786Z,27.80
2023-01-26T01:58:34.056Z,23.85
2023-01-26T01:59:36.419Z,31.92
2023-01-26T02:00:38.705Z,29.83
2023-01-26T02:01:42.228Z,30.45
2023-01-26T02:03:06.113Z,25.52
2023-01-26T02:04:09.051Z,27.05
2023-01-26T02:05:24.577Z,26.65
2023-01-26T02:06:42.449Z,30.60
2023-01-26T02:07:45.485Z,25.75
2023-01-26T02:08:52.527Z,27.27
2023-01-26T02:10:14.273Z,26.60
2023-01-26T02:11:32.576Z,26.40
2023-01-26T02:12:37.124Z,31.80
2023-01-26T02:13:41.378Z,26.98
2023-01-26T02:14:44.099Z,29.20
2023-01-26T02:15:47.119Z,28.77
2023-01-26T02:16:49.362Z,28.27
2023-01-26T02:17:53.181Z,27.67
2023-01-26T02:18:55.537Z,26.17
2023-01-26T02:20:08.538Z,27.00
2023-01-26T02:21:13.929Z,26.38
2023-01-26T02:22:39.323Z,27.63
2023-01-26T02:24:12.888Z,26.90
2023-01-26T02:25:36.121Z,30.25
2023-01-26T02:26:38.931Z,25.77
2023-01-26T02:27:41.716Z,32.20
2023-01-26T02:28:46.029Z,24.70
2023-01-26T02:29:48.680Z,25.17
2023-01-26T02:30:51.887Z,27.38
2023-01-26T02:31:55.119Z,26.35
2023-01-26T02:32:59.105Z,23.83
2023-01-26T02:34:01.370Z,22.95
2023-01-26T02:35:03.865Z,23.05
2023-01-26T02:36:07.650Z,26.70
2023-01-26T02:37:14.880Z,26.42
2023-01-26T02:38:21.045Z,22.60
2023-01-26T02:40:01.527Z,25.40
2023-01-26T02:41:07.383Z,21.80
2023-01-26T02:42:28.899Z,23.25
2023-01-26T02:43:32.134Z,18.65
2023-01-26T02:44:34.465Z,20.25
2023-01-26T02:45:38.415Z,21.85
2023-01-26T02:46:42.613Z,23.45
2023-01-26T02:47:45.395Z,23.27
2023-01-26T02:49:06.401Z,19.80
2023-01-26T02:50:10.216Z,17.58
2023-01-26T02:51:13.581Z,19.60
2023-01-26T02:52:18.128Z,22.42
2023-01-26T02:53:22.391Z,23.05
2023-01-26T02:54:45.028Z,23.02
2023-01-26T02:55:47.249Z,20.40
2023-01-26T02:56:49.489Z,21.20
2023-01-26T02:57:54.705Z,19.98
2023-01-26T02:58:57.513Z,18.95
2023-01-26T02:59:59.861Z,22.42
2023-01-26T03:01:02.253Z,20.75
2023-01-26T03:02:04.636Z,20.83
2023-01-26T03:03:18.504Z,19.50
2023-01-26T03:04:20.968Z,20.67
2023-01-26T03:05:23.205Z,19.30
2023-01-26T03:06:26.488Z,19.33
2023-01-26T03:07:29.249Z,25.73
2023-01-26T03:08:31.766Z,22.52
2023-01-26T03:09:34.020Z,19.10
2023-01-26T03:10:36.887Z,18.98
2023-01-26T03:11:42.274Z,19.98
2023-01-26T03:12:45.877Z,20.90
2023-01-26T03:13:48.121Z,20.27
2023-01-26T03:15:10.439Z,21.55
2023-01-26T03:16:13.547Z,17.23
2023-01-26T03:17:16.669Z,18.15
2023-01-26T03:18:38.733Z,20.02
2023-01-26T03:19:59.663Z,17.60
2023-01-26T03:21:44.279Z,18.23
2023-01-26T03:23:07.308Z,16.48
2023-01-26T03:24:31.998Z,21.25
2023-01-26T03:25:55.501Z,16.95
2023-01-26T03:27:16.553Z,22.48
2023-01-26T03:28:22.447Z,18.70
2023-01-26T03:29:30.513Z,24.52
2023-01-26T03:30:35.643Z,21.83
2023-01-26T03:31:38.294Z,23.25
2023-01-26T03:32:40.886Z,14.63
2023-01-26T03:33:46.795Z,16.38
2023-01-26T03:34:49.066Z,20.88
2023-01-26T03:35:54.651Z,20.17
2023-01-26T03:36:58.328Z,22.02
2023-01-26T03:38:02.262Z,20.70
2023-01-26T03:39:34.151Z,15.13
2023-01-26T03:40:55.603Z,18.98
2023-01-26T03:42:16.972Z,17.33
2023-01-26T03:43:37.710Z,15.75
2023-01-26T03:44:59.025Z,18.42
2023-01-26T03:46:22.653Z,15.13
2023-01-26T03:47:43.680Z,16.10
2023-01-26T03:49:04.565Z,14.38
2023-01-26T03:50:25.683Z,11.93
2023-01-26T03:51:48.142Z,16.80
2023-01-26T03:53:09.119Z,10.10
2023-01-26T03:54:30.034Z,17.13
2023-01-26T03:55:51.053Z,10.95
2023-01-26T03:56:53.848Z,15.77
2023-01-26T03:57:56.079Z,13.55
2023-01-26T03:59:15.366Z,15.18
2023-01-26T04:00:19.048Z,13.95
2023-01-26T04:01:28.089Z,15.93
2023-01-26T04:02:52.053Z,15.43
2023-01-26T04:04:15.503Z,16.65
2023-01-26T04:05:37.541Z,15.90
2023-01-26T04:07:01.325Z,17.02
2023-01-26T04:08:28.593Z,14.88
2023-01-26T04:09:34.010Z,13.95
2023-01-26T04:10:36.380Z,16.67
2023-01-26T04:11:40.182Z,13.48
2023-01-26T04:12:42.637Z,12.88
2023-01-26T04:14:09.110Z,10.43
2023-01-26T04:15:29.888Z,15.55
2023-01-26T04:16:50.880Z,11.80
2023-01-26T04:18:11.757Z,17.45
2023-01-26T04:19:32.852Z,12.23
2023-01-26T04:20:54.069Z,14.30
2023-01-26T04:21:58.675Z,14.95
2023-01-26T04:23:01.021Z,11.23
2023-01-26T04:24:16.627Z,13.75
2023-01-26T04:25:20.950Z,13.80
2023-01-26T04:26:34.926Z,14.20
2023-01-26T04:27:39.137Z,14.90
2023-01-26T04:28:41.745Z,17.02
2023-01-26T04:29:44.062Z,13.70
2023-01-26T04:30:46.402Z,14.48
2023-01-26T04:31:48.989Z,13.38
2023-01-26T04:32:55.082Z,12.55
2023-01-26T04:33:57.400Z,16.38
2023-01-26T04:34:59.638Z,13.25
2023-01-26T04:36:05.233Z,14.32
2023-01-26T04:37:09.190Z,14.02
2023-01-26T04:38:19.612Z,13.93
2023-01-26T04:39:22.210Z,15.65
2023-01-26T04:40:28.752Z,12.43
2023-01-26T04:41:32.261Z,15.25
2023-01-26T04:42:39.514Z,12.38
2023-01-26T04:43:42.225Z,10.82
2023-01-26T04:44:44.623Z,13.13
2023-01-26T04:46:00.886Z,11.82
2023-01-26T04:47:04.480Z,11.40
2023-01-26T04:48:06.735Z,12.77
2023-01-26T04:49:09.184Z,14.45
2023-01-26T04:50:11.973Z,13.38
2023-01-26T04:51:17.477Z,11.48
2023-01-26T04:52:19.704Z,15.43
2023-01-26T04:53:22.033Z,12.52
2023-01-26T04:54:24.309Z,12.82
2023-01-26T04:55:27.528Z,13.82
2023-01-26T04:56:33.040Z,12.57
2023-01-26T04:57:35.954Z,13.63
2023-01-26T04:58:41.633Z,13.60
2023-01-26T04:59:44.103Z,12.40
2023-01-26T05:00:54.350Z,13.18
2023-01-26T05:01:56.743Z,14.27
2023-01-26T05:02:59.040Z,12.02
2023-01-26T05:04:03.276Z,14.50
2023-01-26T05:05:07.517Z,11.65
2023-01-26T05:06:09.854Z,15.32
2023-01-26T05:07:12.270Z,15.00
2023-01-26T05:08:14.560Z,14.27
2023-01-26T05:09:16.928Z,12.38
2023-01-26T05:10:21.084Z,15.05
2023-01-26T05:11:34.581Z,17.17
2023-01-26T05:13:12.299Z,11.88
2023-01-26T05:14:37.582Z,12.80
2023-01-26T05:16:00.021Z,10.65
2023-01-26T05:17:23.479Z,13.65
2023-01-26T05:18:44.541Z,9.85
2023-01-26T05:20:05.693Z,10.13
2023-01-26T05:21:15.031Z,12.35
2023-01-26T05:22:21.984Z,11.70
2023-01-26T05:23:43.009Z,10.80
2023-01-26T05:25:11.472Z,13.05
2023-01-26T05:26:22.756Z,12.13
2023-01-26T05:27:32.044Z,15.60
2023-01-26T05:28:35.940Z,12.75
2023-01-26T05:29:38.252Z,11.00
2023-01-26T05:30:40.662Z,10.43
2023-01-26T05:31:42.954Z,14.75
2023-01-26T05:32:45.371Z,12.05
2023-01-26T05:33:48.849Z,11.05
2023-01-26T05:34:56.975Z,12.43
2023-01-26T05:36:07.468Z,10.93
2023-01-26T05:37:10.223Z,11.82
2023-01-26T05:38:15.223Z,13.45
2023-01-26T05:39:17.486Z,12.40
2023-01-26T05:40:19.941Z,10.90
2023-01-26T05:41:22.222Z,9.90
2023-01-26T05:42:44.061Z,10.93
2023-01-26T05:43:55.683Z,13.50
2023-01-26T05:45:12.030Z,9.20
2023-01-26T05:46:15.203Z,13.68
2023-01-26T05:47:19.951Z,10.00
2023-01-26T05:48:24.747Z,9.25
2023-01-26T05:49:28.097Z,10.73
2023-01-26T05:50:30.929Z,9.30
2023-01-26T05:51:54.665Z,9.85
2023-01-26T05:52:57.158Z,10.80
2023-01-26T05:53:59.458Z,9.55
2023-01-26T05:55:02.478Z,11.75
2023-01-26T05:56:04.979Z,11.77
2023-01-26T05:57:10.172Z,17.88
2023-01-26T05:58:16.435Z,10.02
2023-01-26T05:59:19.106Z,11.13
2023-01-26T06:00:22.434Z,11.13
2023-01-26T06:01:32.274Z,8.43
2023-01-26T06:02:37.689Z,7.38
2023-01-26T06:03:39.956Z,11.48
2023-01-26T06:04:42.532Z,8.80
2023-01-26T06:05:44.963Z,10.23
2023-01-26T06:06:54.698Z,11.57
2023-01-26T06:07:59.238Z,10.80
2023-01-26T06:09:06.622Z,16.27
2023-01-26T06:10:09.795Z,11.57
2023-01-26T06:11:32.851Z,11.70
2023-01-26T06:12:44.309Z,11.25
2023-01-26T06:14:11.813Z,9.20
2023-01-26T06:15:15.135Z,7.45
2023-01-26T06:16:20.129Z,11.30
2023-01-26T06:17:23.935Z,11.38
2023-01-26T06:18:31.962Z,10.13
2023-01-26T06:19:36.240Z,12.63
2023-01-26T06:20:38.536Z,8.75
2023-01-26T06:21:41.780Z,13.32
2023-01-26T06:22:44.061Z,11.82
2023-01-26T06:23:46.480Z,11.50
2023-01-26T06:24:49.477Z,11.80
2023-01-26T06:25:52.172Z,12.43
2023-01-26T06:26:54.700Z,8.90
2023-01-26T06:27:58.771Z,11.77
2023-01-26T06:29:04.512Z,10.93
2023-01-26T06:30:12.664Z,10.45
2023-01-26T06:31:16.367Z,9.77
2023-01-26T06:32:21.402Z,12.25
2023-01-26T06:33:30.657Z,11.35
2023-01-26T06:34:34.357Z,10.13
2023-01-26T06:35:37.188Z,9.30
2023-01-26T06:36:42.806Z,9.95
2023-01-26T06:37:51.492Z,11.38
2023-01-26T06:38:56.363Z,11.88
2023-01-26T06:39:59.276Z,10.63
2023-01-26T06:41:06.777Z,8.00
2023-01-26T06:42:09.664Z,9.23
2023-01-26T06:43:13.973Z,9.95
2023-01-26T06:44:18.020Z,8.85
2023-01-26T06:45:24.807Z,10.77
2023-01-26T06:46:27.610Z,9.98
2023-01-26T06:47:30.591Z,7.47
2023-01-26T06:48:35.071Z,9.15
2023-01-26T06:49:39.712Z,10.52
2023-01-26T06:50:48.902Z,9.38
2023-01-26T06:52:05.332Z,9.80
2023-01-26T06:53:33.613Z,8.10
2023-01-26T06:55:05.431Z,13.25
2023-01-26T06:56:28.751Z,10.45
2023-01-26T06:57:49.942Z,10.35
2023-01-26T06:59:15.949Z,10.85
2023-01-26T07:00:45.898Z,11.00
2023-01-26T07:01:55.432Z,9.40
2023-01-26T07:02:57.661Z,11.70
2023-01-26T07:03:59.877Z,12.52
2023-01-26T07:05:02.176Z,9.88
2023-01-26T07:06:06.705Z,11.07
2023-01-26T07:07:09.471Z,11.20
2023-01-26T07:08:12.687Z,10.07
2023-01-26T07:09:15.468Z,10.65
2023-01-26T07:10:18.446Z,11.05
2023-01-26T07:11:22.416Z,10.00
2023-01-26T07:12:37.930Z,10.13
2023-01-26T07:13:45.652Z,12.02
2023-01-26T07:14:48.591Z,11.65
2023-01-26T07:15:53.029Z,12.95
2023-01-26T07:16:58.114Z,9.48
2023-01-26T07:18:01.346Z,10.80
2023-01-26T07:19:04.055Z,8.60
2023-01-26T07:20:08.883Z,9.43
2023-01-26T07:21:14.963Z,8.55
2023-01-26T07:22:18.757Z,11.35
2023-01-26T07:23:21.616Z,9.15
2023-01-26T07:24:24.206Z,9.65
2023-01-26T07:25:26.879Z,10.60
2023-01-26T07:26:29.168Z,8.85
2023-01-26T07:27:31.480Z,9.82
2023-01-26T07:28:38.617Z,9.98
2023-01-26T07:29:42.068Z,7.55
2023-01-26T07:30:44.415Z,7.32
2023-01-26T07:31:46.788Z,10.00
2023-01-26T07:32:49.064Z,10.30
2023-01-26T07:33:51.360Z,8.48
2023-01-26T07:34:53.618Z,10.32
2023-01-26T07:35:57.167Z,7.57
2023-01-26T07:36:59.551Z,8.30
2023-01-26T07:38:04.549Z,10.32
2023-01-26T07:39:08.661Z,9.70
2023-01-26T07:40:11.779Z,8.63
2023-01-26T07:41:17.037Z,8.25
2023-01-26T07:42:20.169Z,9.80
2023-01-26T07:43:37.753Z,11.07
2023-01-26T07:44:45.022Z,10.73
2023-01-26T07:45:51.810Z,10.35
2023-01-26T07:46:54.865Z,8.60
2023-01-26T07:47:58.131Z,8.00
2023-01-26T07:49:00.497Z,10.48
2023-01-26T07:50:02.815Z,10.10
2023-01-26T07:51:05.712Z,9.27
2023-01-26T07:52:09.232Z,8.48
2023-01-26T07:53:14.937Z,8.35
2023-01-26T07:54:17.154Z,9.43
2023-01-26T07:55:20.645Z,8.27
2023-01-26T07:56:22.937Z,9.73
2023-01-26T07:57:25.215Z,10.85
2023-01-26T07:58:27.464Z,8.43
2023-01-26T07:59:30.421Z,10.32
2023-01-26T08:00:32.810Z,7.45
2023-01-26T08:01:35.560Z,9.85
2023-01-26T08:02:37.836Z,8.90
2023-01-26T08:03:40.906Z,10.80
2023-01-26T08:04:43.220Z,7.93
2023-01-26T08:05:47.272Z,8.05
2023-01-26T08:06:52.129Z,11.23
2023-01-26T08:07:59.561Z,8.80
2023-01-26T08:09:01.859Z,9.60
2023-01-26T08:10:04.637Z,7.43
2023-01-26T08:11:07.874Z,7.53
2023-01-26T08:12:10.142Z,8.40
2023-01-26T08:13:12.546Z,8.30
2023-01-26T08:14:14.850Z,7.30
2023-01-26T08:15:17.127Z,6.93
2023-01-26T08:16:19.402Z,8.57
2023-01-26T08:17:21.643Z,9.68
2023-01-26T08:18:23.946Z,7.50
2023-01-26T08:19:26.202Z,6.35
2023-01-26T08:20:28.452Z,8.68
2023-01-26T08:21:30.734Z,7.43
2023-01-26T08:22:33.309Z,5.82
2023-01-26T08:23:35.966Z,7.07
2023-01-26T08:24:38.245Z,9.38
2023-01-26T08:25:40.525Z,10.88
2023-01-26T08:26:42.791Z,6.35
2023-01-26T08:27:45.078Z,8.73
2023-01-26T08:28:48.760Z,7.85
2023-01-26T08:29:51.550Z,7.82
2023-01-26T08:30:53.843Z,7.03
2023-01-26T08:31:56.495Z,8.00
2023-01-26T08:32:58.887Z,8.68
2023-01-26T08:34:01.161Z,8.70
2023-01-26T08:35:03.888Z,7.30
2023-01-26T08:36:09.271Z,9.02
2023-01-26T08:37:11.647Z,8.35
2023-01-26T08:38:13.979Z,10.02
2023-01-26T08:39:16.274Z,6.95
2023-01-26T08:40:18.593Z,7.10
2023-01-26T08:41:20.863Z,8.82
2023-01-26T08:42:23.130Z,8.48
2023-01-26T08:43:25.815Z,8.35
2023-01-26T08:44:28.086Z,8.00
2023-01-26T08:45:34.019Z,7.60
2023-01-26T08:46:36.474Z,7.43
2023-01-26T08:47:38.792Z,7.90
2023-01-26T08:48:41.210Z,9.98
2023-01-26T08:49:43.457Z,8.07
2023-01-26T08:50:46.375Z,10.52
2023-01-26T08:51:48.617Z,9.98
2023-01-26T08:52:50.899Z,7.07
2023-01-26T08:53:54.751Z,10.43
2023-01-26T08:54:57.059Z,10.85
2023-01-26T08:56:06.285Z,8.25
2023-01-26T08:57:08.534Z,10.10
2023-01-26T08:58:10.910Z,10.05
2023-01-26T08:59:13.168Z,9.63
2023-01-26T09:00:15.793Z,8.65
2023-01-26T09:01:18.500Z,12.48
2023-01-26T09:02:20.939Z,7.45
2023-01-26T09:03:23.323Z,7.63
2023-01-26T09:04:27.432Z,7.70
2023-01-26T09:05:33.633Z,8.65
2023-01-26T09:06:35.838Z,8.00
2023-01-26T09:07:38.201Z,11.57
2023-01-26T09:08:40.550Z,10.75
2023-01-26T09:09:42.826Z,9.63
2023-01-26T09:10:47.819Z,9.63
2023-01-26T09:11:50.110Z,11.00
2023-01-26T09:12:52.385Z,9.88
2023-01-26T09:13:56.747Z,8.98
2023-01-26T09:14:59.745Z,9.02
2023-01-26T09:16:07.024Z,7.18
2023-01-26T09:17:09.400Z,10.02
2023-01-26T09:18:11.817Z,8.18
2023-01-26T09:19:14.032Z,5.53
2023-01-26T09:20:16.727Z,8.48
2023-01-26T09:21:19.747Z,8.15
2023-01-26T09:22:21.983Z,6.22
2023-01-26T09:23:24.338Z,8.20
2023-01-26T09:24:26.730Z,7.85
2023-01-26T09:25:29.077Z,9.10
2023-01-26T09:26:31.732Z,10.05
2023-01-26T09:27:34.050Z,9.18
2023-01-26T09:28:36.537Z,9.85
2023-01-26T09:29:38.798Z,10.40
2023-01-26T09:30:41.440Z,8.32
2023-01-26T09:31:43.856Z,8.98
2023-01-26T09:32:46.282Z,13.63
2023-01-26T09:33:50.192Z,12.18
2023-01-26T09:34:52.455Z,9.75
2023-01-26T09:35:54.692Z,8.75
2023-01-26T09:36:56.938Z,10.60
2023-01-26T09:37:59.262Z,9.65
2023-01-26T09:39:01.950Z,6.20
2023-01-26T09:40:04.838Z,6.63
2023-01-26T09:41:31.004Z,7.50
2023-01-26T09:42:47.737Z,8.68
2023-01-26T09:43:53.196Z,7.57
2023-01-26T09:45:14.320Z,6.80
2023-01-26T09:46:25.959Z,6.28
2023-01-26T09:47:36.438Z,6.80
2023-01-26T09:49:07.441Z,7.28
2023-01-26T09:50:15.995Z,8.27
2023-01-26T09:51:44.411Z,8.32
2023-01-26T09:52:52.627Z,10.18
2023-01-26T09:53:59.435Z,11.73
2023-01-26T09:55:04.997Z,8.95
2023-01-26T09:56:15.574Z,7.57
2023-01-26T09:57:23.232Z,9.45
2023-01-26T09:58:38.254Z,9.10
2023-01-26T10:00:13.150Z,11.10
2023-01-26T10:01:36.257Z,9.20
2023-01-26T10:03:01.252Z,9.32
2023-01-26T10:04:13.205Z,10.60
2023-01-26T10:05:19.734Z,10.70
2023-01-26T10:06:29.133Z,9.77
2023-01-26T10:07:45.355Z,10.05
2023-01-26T10:08:49.719Z,8.93
2023-01-26T10:09:53.637Z,9.90
2023-01-26T10:11:03.292Z,8.35
2023-01-26T10:12:28.862Z,8.20
2023-01-26T10:13:31.527Z,9.75
2023-01-26T10:14:48.575Z,7.63
2023-01-26T10:16:10.572Z,10.35
2023-01-26T10:17:26.885Z,7.85
2023-01-26T10:18:35.195Z,6.97
2023-01-26T10:19:45.443Z,8.30
2023-01-26T10:20:56.816Z,10.30
2023-01-26T10:22:03.107Z,8.68
2023-01-26T10:23:25.615Z,8.70
2023-01-26T10:24:28.329Z,7.57
2023-01-26T10:25:36.156Z,8.68
2023-01-26T10:26:38.438Z,7.47
2023-01-26T10:27:40.723Z,6.65
2023-01-26T10:28:45.578Z,6.10
2023-01-26T10:29:47.791Z,5.75
2023-01-26T10:30:51.497Z,19.73
2023-01-26T10:31:55.360Z,21.90
2023-01-26T10:32:57.817Z,56.88
2023-01-26T10:34:09.023Z,96.03
2023-01-26T10:35:19.947Z,95.00
2023-01-26T10:36:22.722Z,107.20
2023-01-26T10:37:29.739Z,68.85
2023-01-26T10:38:38.018Z,55.45
2023-01-26T10:39:57.167Z,40.38
2023-01-26T10:41:03.414Z,47.30
2023-01-26T10:42:05.806Z,45.75
2023-01-26T10:43:17.821Z,38.13
2023-01-26T10:44:40.321Z,27.17
2023-01-26T10:45:47.647Z,14.80
2023-01-26T10:47:04.081Z,17.90
2023-01-26T10:48:16.169Z,15.02
2023-01-26T10:49:19.998Z,16.23
2023-01-26T10:50:24.693Z,15.63
2023-01-26T10:51:32.535Z,14.93
2023-01-26T10:52:34.771Z,26.85
2023-01-26T10:53:37.026Z,23.52
2023-01-26T10:54:39.802Z,23.92
2023-01-26T10:55:42.604Z,30.58
2023-01-26T10:56:58.677Z,29.75
2023-01-26T10:58:01.502Z,29.48
2023-01-26T10:59:08.665Z,27.80
2023-01-26T11:00:17.334Z,30.27
2023-01-26T11:01:23.258Z,26.42
2023-01-26T11:02:31.278Z,36.80
2023-01-26T11:03:33.608Z,64.95
2023-01-26T11:04:35.863Z,80.70
2023-01-26T11:05:38.365Z,91.85
2023-01-26T11:06:41.097Z,98.88
2023-01-26T11:07:45.816Z,91.05
2023-01-26T11:08:48.111Z,79.93
2023-01-26T11:09:53.578Z,63.72
2023-01-26T11:10:57.598Z,56.15
2023-01-26T11:12:02.770Z,51.97
2023-01-26T11:13:20.317Z,40.97
2023-01-26T11:14:22.668Z,33.70
2023-01-26T11:15:28.186Z,33.15
2023-01-26T11:16:30.655Z,32.38
2023-01-26T11:17:57.971Z,25.38
2023-01-26T11:19:18.343Z,23.70
2023-01-26T11:20:48.239Z,18.65
2023-01-26T11:22:05.446Z,20.60
2023-01-26T11:23:22.337Z,17.20
2023-01-26T11:24:31.503Z,18.17
2023-01-26T11:26:24.160Z,15.30
2023-01-26T11:27:51.611Z,14.88
2023-01-26T11:29:15.830Z,15.65
2023-01-26T11:30:41.754Z,12.45
2023-01-26T11:32:06.224Z,10.55
2023-01-26T11:33:29.263Z,10.23
2023-01-26T11:34:54.985Z,11.20
2023-01-26T11:36:29.368Z,9.75
2023-01-26T11:37:46.036Z,11.25
2023-01-26T11:39:03.506Z,12.10
2023-01-26T11:40:14.410Z,10.43
2023-01-26T11:41:38.017Z,8.85
2023-01-26T11:43:08.528Z,10.32
2023-01-26T11:44:31.333Z,11.18
2023-01-26T11:45:47.432Z,10.07
2023-01-26T11:47:15.450Z,9.45
2023-01-26T11:48:48.336Z,9.23
2023-01-26T11:50:24.567Z,9.15
2023-01-26T11:51:41.672Z,7.65
2023-01-26T11:52:55.480Z,7.00
2023-01-26T11:54:18.326Z,7.97
2023-01-26T11:55:55.652Z,10.43
2023-01-26T11:57:07.123Z,10.85
2023-01-26T11:58:48.351Z,8.88
2023-01-26T12:00:05.458Z,9.45
2023-01-26T12:01:28.923Z,10.13
2023-01-26T12:02:37.127Z,10.27
2023-01-26T12:03:52.751Z,12.95
2023-01-26T12:05:03.557Z,10.75
2023-01-26T12:06:08.582Z,11.45
2023-01-26T12:07:24.171Z,9.20
2023-01-26T12:09:02.449Z,13.15
2023-01-26T12:10:07.346Z,9.65
2023-01-26T12:11:33.812Z,10.27
2023-01-26T12:12:49.452Z,8.20
2023-01-26T12:14:02.259Z,9.15
2023-01-26T12:15:15.116Z,7.95
2023-01-26T12:16:27.139Z,8.95
2023-01-26T12:17:52.574Z,9.80
2023-01-26T12:19:11.147Z,8.20
2023-01-26T12:20:16.788Z,9.95
2023-01-26T12:21:20.382Z,9.70
2023-01-26T12:22:34.220Z,8.25
2023-01-26T12:23:51.603Z,12.32
2023-01-26T12:25:20.219Z,10.52
2023-01-26T12:26:25.571Z,11.38
2023-01-26T12:27:43.669Z,10.55
2023-01-26T12:29:06.436Z,14.90
2023-01-26T12:30:41.251Z,12.55
2023-01-26T12:31:55.574Z,11.40
2023-01-26T12:32:58.369Z,9.98
2023-01-26T12:34:00.930Z,10.43
2023-01-26T12:35:11.482Z,13.05
2023-01-26T12:36:34.668Z,11.60
2023-01-26T12:37:57.620Z,18.10
2023-01-26T12:39:39.725Z,13.32
2023-01-26T12:41:16.757Z,10.68
2023-01-26T12:42:43.626Z,9.43
2023-01-26T12:44:06.564Z,10.02
2023-01-26T12:45:18.685Z,11.50
2023-01-26T12:46:23.217Z,12.50
2023-01-26T12:47:45.234Z,8.15
2023-01-26T12:48:54.346Z,13.18
2023-01-26T12:50:05.925Z,11.80
2023-01-26T12:51:17.345Z,9.77
2023-01-26T12:52:31.950Z,11.05
2023-01-26T12:53:52.835Z,11.88
2023-01-26T12:55:01.339Z,11.38
2023-01-26T12:56:39.862Z,10.05
2023-01-26T12:57:50.891Z,8.85
2023-01-26T12:58:57.267Z,10.50
2023-01-26T13:00:18.735Z,10.50
2023-01-26T13:01:23.667Z,12.50
2023-01-26T13:02:31.743Z,11.27
2023-01-26T13:03:41.893Z,12.70
2023-01-26T13:04:47.874Z,12.20
2023-01-26T13:05:55.345Z,13.55
2023-01-26T13:07:24.282Z,11.00
2023-01-26T13:08:32.102Z,12.20
2023-01-26T13:09:34.385Z,15.25
2023-01-26T13:10:50.010Z,15.82
2023-01-26T13:11:59.941Z,17.33
2023-01-26T13:13:22.112Z,16.48
2023-01-26T13:14:32.129Z,18.90
2023-01-26T13:15:34.543Z,19.13
2023-01-26T13:16:36.825Z,17.23
2023-01-26T13:17:52.469Z,17.27
2023-01-26T13:18:59.766Z,17.65
2023-01-26T13:20:16.262Z,15.32
2023-01-26T13:21:40.275Z,18.85
2023-01-26T13:22:42.661Z,16.13
2023-01-26T13:23:45.327Z,16.30
2023-01-26T13:25:18.810Z,15.95
2023-01-26T13:26:45.771Z,14.45
2023-01-26T13:27:57.298Z,13.93
2023-01-26T13:29:51.713Z,13.10
2023-01-26T13:31:05.287Z,13.02
2023-01-26T13:32:10.059Z,13.02
2023-01-26T13:33:16.207Z,10.30
2023-01-26T13:34:39.427Z,11.00
2023-01-26T13:35:42.380Z,10.68
2023-01-26T13:36:47.869Z,12.00
2023-01-26T13:37:57.080Z,15.05
2023-01-26T13:39:04.366Z,11.75
2023-01-26T13:40:19.096Z,9.43
2023-01-26T13:41:22.184Z,10.23
2023-01-26T13:42:38.701Z,10.68
2023-01-26T13:43:46.653Z,11.27
2023-01-26T13:44:58.978Z,10.50
2023-01-26T13:46:32.263Z,12.02
2023-01-26T13:47:40.659Z,14.32
2023-01-26T13:48:50.144Z,11.27
2023-01-26T13:49:52.660Z,13.38
2023-01-26T13:51:00.618Z,9.63
2023-01-26T13:52:04.152Z,10.23
2023-01-26T13:53:25.229Z,10.18
2023-01-26T13:54:27.577Z,9.50
2023-01-26T13:55:34.034Z,9.13
2023-01-26T13:56:39.048Z,10.05
2023-01-26T13:57:41.362Z,7.97
2023-01-26T13:58:43.621Z,9.32
2023-01-26T13:59:56.504Z,10.52
2023-01-26T14:01:04.908Z,8.45
2023-01-26T14:02:22.592Z,10.23
2023-01-26T14:03:24.906Z,7.80
2023-01-26T14:04:28.200Z,10.40
2023-01-26T14:05:31.946Z,9.95
2023-01-26T14:06:36.964Z,9.32
2023-01-26T14:07:42.246Z,8.63
2023-01-26T14:09:04.216Z,9.45
2023-01-26T14:10:08.041Z,7.50
2023-01-26T14:11:20.009Z,9.32
2023-01-26T14:12:36.020Z,6.50
2023-01-26T14:13:38.959Z,8.73
2023-01-26T14:14:41.451Z,6.70
2023-01-26T14:15:43.783Z,7.50
2023-01-26T14:16:46.075Z,8.40
2023-01-26T14:17:59.878Z,6.15
2023-01-26T14:19:17.687Z,7.15
2023-01-26T14:20:31.931Z,8.25
2023-01-26T14:21:46.567Z,6.88
2023-01-26T14:23:10.281Z,10.63
2023-01-26T14:24:12.670Z,6.72
2023-01-26T14:25:20.540Z,6.93
2023-01-26T14:26:32.870Z,7.28
2023-01-26T14:27:40.726Z,7.43
2023-01-26T14:28:43.895Z,7.32
2023-01-26T14:29:47.687Z,9.20
2023-01-26T14:30:58.661Z,6.63
2023-01-26T14:32:01.276Z,7.75
2023-01-26T14:33:15.337Z,7.55
2023-01-26T14:34:23.770Z,7.75
2023-01-26T14:35:26.230Z,7.32
2023-01-26T14:36:33.978Z,7.63
2023-01-26T14:37:36.313Z,9.35
2023-01-26T14:38:50.451Z,7.80
2023-01-26T14:40:11.211Z,8.65
2023-01-26T14:41:28.658Z,7.68
2023-01-26T14:42:31.007Z,7.60
2023-01-26T14:43:33.289Z,8.30
2023-01-26T14:44:35.555Z,9.30
2023-01-26T14:45:39.414Z,8.63
2023-01-26T14:47:00.269Z,9.30
2023-01-26T14:48:07.419Z,7.95
2023-01-26T14:49:14.982Z,9.18
2023-01-26T14:50:28.267Z,9.20
2023-01-26T14:51:32.377Z,8.25